createdAt,value
2019-03-12T00:00:13.434Z,6.70
2019-03-12T00:02:40.104Z,6.70
2019-03-12T00:05:07.022Z,6.80
2019-03-12T00:07:33.682Z,6.60
2019-03-12T00:10:00.418Z,6.30
2019-03-12T00:12:27.246Z,6.30
2019-03-12T00:14:53.993Z,6.30
2019-03-12T00:17:20.682Z,6.50
2019-03-12T00:19:47.382Z,6.70
2019-03-12T00:22:13.969Z,6.50
2019-03-12T00:24:40.663Z,6.30
2019-03-12T00:27:07.390Z,6.40
2019-03-12T00:29:34.120Z,6.50
2019-03-12T00:32:00.819Z,6.50
2019-03-12T00:34:27.546Z,6.80
2019-03-12T00:36:54.256Z,6.60
2019-03-12T00:39:20.929Z,6.30
2019-03-12T00:41:47.610Z,6.40
2019-03-12T00:44:14.320Z,6.60
2019-03-12T00:46:40.967Z,6.60
2019-03-12T00:49:07.631Z,6.40
2019-03-12T00:51:34.316Z,6.40
2019-03-12T00:54:01.044Z,6.40
2019-03-12T00:56:27.773Z,6.30
2019-03-12T00:58:54.566Z,6.00
2019-03-12T01:01:21.301Z,6.00
2019-03-12T01:03:48.026Z,6.20
2019-03-12T01:06:14.746Z,6.10
2019-03-12T01:08:41.494Z,6.10
2019-03-12T01:11:08.192Z,6.20
2019-03-12T01:13:34.739Z,6.20
2019-03-12T01:16:01.433Z,6.00
2019-03-12T01:18:28.121Z,5.90
2019-03-12T01:20:54.815Z,5.90
2019-03-12T01:23:21.508Z,6.00
2019-03-12T01:25:48.190Z,6.00
2019-03-12T01:28:14.965Z,5.80
2019-03-12T01:30:41.690Z,5.80
2019-03-12T01:33:08.361Z,5.80
2019-03-12T01:35:35.063Z,6.00
2019-03-12T01:38:01.782Z,6.10
2019-03-12T01:40:28.480Z,6.10
2019-03-12T01:42:55.192Z,6.10
2019-03-12T01:45:21.864Z,6.00
2019-03-12T01:47:48.591Z,6.00
2019-03-12T01:50:15.301Z,5.90
2019-03-12T01:52:41.950Z,6.00
2019-03-12T01:55:09.112Z,5.90
2019-03-12T01:57:35.843Z,6.10
2019-03-12T02:00:03.630Z,6.10
2019-03-12T02:02:30.346Z,6.40
2019-03-12T02:04:57.123Z,6.20
2019-03-12T02:07:23.830Z,6.10
2019-03-12T02:09:50.613Z,5.90
2019-03-12T02:12:17.364Z,6.10
2019-03-12T02:14:44.083Z,5.80
2019-03-12T02:17:10.747Z,5.80
2019-03-12T02:19:37.410Z,5.60
2019-03-12T02:22:05.615Z,5.70
2019-03-12T02:24:32.335Z,5.70
2019-03-12T02:26:59.049Z,5.70
2019-03-12T02:29:25.843Z,5.90
2019-03-12T02:31:52.537Z,6.20
2019-03-12T02:34:19.214Z,6.00
2019-03-12T02:36:45.917Z,6.10
2019-03-12T02:39:12.627Z,6.10
2019-03-12T02:41:39.319Z,6.00
2019-03-12T02:44:06.007Z,5.80
2019-03-12T02:46:32.725Z,5.60
2019-03-12T02:48:59.437Z,5.90
2019-03-12T02:51:26.216Z,5.90
2019-03-12T02:53:52.786Z,5.90
2019-03-12T02:56:19.493Z,6.00
2019-03-12T02:58:46.182Z,5.90
2019-03-12T03:01:12.725Z,5.80
2019-03-12T03:03:39.479Z,5.80
2019-03-12T03:06:06.171Z,5.80
2019-03-12T03:08:32.879Z,5.70
2019-03-12T03:10:59.640Z,5.80
2019-03-12T03:13:26.309Z,5.90
2019-03-12T03:15:53.040Z,6.20
2019-03-12T03:18:19.791Z,5.80
2019-03-12T03:20:46.457Z,5.70
2019-03-12T03:23:13.211Z,5.70
2019-03-12T03:25:39.848Z,5.70
2019-03-12T03:28:06.573Z,5.80
2019-03-12T03:30:33.529Z,6.00
2019-03-12T03:33:00.447Z,5.90
2019-03-12T03:35:27.253Z,5.80
2019-03-12T03:37:53.984Z,5.50
2019-03-12T03:40:20.727Z,5.50
2019-03-12T03:42:47.409Z,5.50
2019-03-12T03:45:14.495Z,5.40
2019-03-12T03:47:41.234Z,5.40
2019-03-12T03:50:08.055Z,5.30
2019-03-12T03:52:34.894Z,5.30
2019-03-12T03:55:01.574Z,5.30
2019-03-12T03:57:28.280Z,5.30
2019-03-12T03:59:54.995Z,5.60
2019-03-12T04:02:21.732Z,5.60
2019-03-12T04:04:48.446Z,5.30
2019-03-12T04:07:15.106Z,5.70
2019-03-12T04:09:41.747Z,5.80
2019-03-12T04:12:08.394Z,5.80
2019-03-12T04:14:35.133Z,5.70
2019-03-12T04:17:01.885Z,5.60
2019-03-12T04:19:28.579Z,5.50
2019-03-12T04:21:55.263Z,5.80
2019-03-12T04:24:22.049Z,5.60
2019-03-12T04:26:48.852Z,5.80
2019-03-12T04:29:15.581Z,5.90
2019-03-12T04:31:42.391Z,5.70
2019-03-12T04:34:11.541Z,5.70
2019-03-12T04:36:38.307Z,5.80
2019-03-12T04:39:05.208Z,5.70
2019-03-12T04:41:31.953Z,5.80
2019-03-12T04:43:58.496Z,5.80
2019-03-12T04:46:25.210Z,5.70
2019-03-12T04:48:51.932Z,5.50
2019-03-12T04:51:18.642Z,5.40
2019-03-12T04:53:45.398Z,5.50
2019-03-12T04:56:12.058Z,5.60
2019-03-12T04:58:38.770Z,5.70
2019-03-12T05:01:05.486Z,5.30
2019-03-12T05:03:32.203Z,5.50
2019-03-12T05:05:58.915Z,5.50
2019-03-12T05:08:25.552Z,5.40
2019-03-12T05:10:52.302Z,5.50
2019-03-12T05:13:18.985Z,5.50
2019-03-12T05:15:45.691Z,5.50
2019-03-12T05:18:12.423Z,5.40
2019-03-12T05:20:39.150Z,5.40
2019-03-12T05:23:05.875Z,5.30
2019-03-12T05:25:32.571Z,5.20
2019-03-12T05:27:59.292Z,5.20
2019-03-12T05:30:26.067Z,5.10
2019-03-12T05:32:52.823Z,5.10
2019-03-12T05:35:19.597Z,5.40
2019-03-12T05:37:46.330Z,5.70
2019-03-12T05:40:13.072Z,5.40
2019-03-12T05:42:39.735Z,5.10
2019-03-12T05:45:06.849Z,5.30
2019-03-12T05:47:33.544Z,5.50
2019-03-12T05:50:00.380Z,5.20
2019-03-12T05:52:27.177Z,5.20
2019-03-12T05:54:53.908Z,5.20
2019-03-12T05:57:20.626Z,4.90
2019-03-12T05:59:47.320Z,4.70
2019-03-12T06:02:14.064Z,4.70
2019-03-12T06:04:40.826Z,4.90
2019-03-12T06:07:07.474Z,4.60
2019-03-12T06:09:34.316Z,4.60
2019-03-12T06:12:01.120Z,4.60
2019-03-12T06:14:27.839Z,4.60
2019-03-12T06:16:54.547Z,4.70
2019-03-12T06:19:21.258Z,4.70
2019-03-12T06:21:47.973Z,4.90
2019-03-12T06:24:14.738Z,4.70
2019-03-12T06:26:41.439Z,4.70
2019-03-12T06:29:08.149Z,4.70
2019-03-12T06:31:34.842Z,4.70
2019-03-12T06:34:01.577Z,4.60
2019-03-12T06:36:28.263Z,4.70
2019-03-12T06:38:54.959Z,4.50
2019-03-12T06:41:21.715Z,4.90
2019-03-12T06:43:48.415Z,5.20
2019-03-12T06:46:15.129Z,5.10
2019-03-12T06:48:41.832Z,5.10
2019-03-12T06:51:08.607Z,5.00
2019-03-12T06:53:35.308Z,5.10
2019-03-12T06:56:02.132Z,5.10
2019-03-12T06:58:28.839Z,5.00
2019-03-12T07:00:55.537Z,5.00
2019-03-12T07:03:22.303Z,4.80
2019-03-12T07:05:48.993Z,5.00
2019-03-12T07:08:15.595Z,5.10
2019-03-12T07:10:42.286Z,5.40
2019-03-12T07:13:08.981Z,5.50
2019-03-12T07:15:35.685Z,5.60
2019-03-12T07:18:02.390Z,5.70
2019-03-12T07:20:29.107Z,5.80
2019-03-12T07:22:55.820Z,5.80
2019-03-12T07:25:22.587Z,5.80
2019-03-12T07:27:49.281Z,5.90
2019-03-12T07:30:16.045Z,6.00
2019-03-12T07:32:42.704Z,6.20
2019-03-12T07:35:09.455Z,6.30
2019-03-12T07:37:36.180Z,6.40
2019-03-12T07:40:03.307Z,6.00
2019-03-12T07:42:30.049Z,6.20
2019-03-12T07:44:56.777Z,6.30
2019-03-12T07:47:35.188Z,6.60
2019-03-12T07:49:52.127Z,6.60
2019-03-12T07:52:18.748Z,6.50
2019-03-12T07:54:45.517Z,6.70
2019-03-12T07:57:12.328Z,6.90
2019-03-12T07:59:39.017Z,6.90
2019-03-12T08:02:05.656Z,6.80
2019-03-12T08:04:32.333Z,6.90
2019-03-12T08:06:59.091Z,6.80
2019-03-12T08:09:25.770Z,6.80
2019-03-12T08:11:52.518Z,6.90
2019-03-12T08:14:19.226Z,7.20
2019-03-12T08:16:45.940Z,7.30
2019-03-12T08:19:12.714Z,7.50
2019-03-12T08:21:39.466Z,7.10
2019-03-12T08:24:06.127Z,7.20
2019-03-12T08:26:32.759Z,7.10
2019-03-12T08:28:59.495Z,7.20
2019-03-12T08:31:26.359Z,7.20
2019-03-12T08:33:53.064Z,7.20
2019-03-12T08:36:19.843Z,7.30
2019-03-12T08:38:46.648Z,7.60
2019-03-12T08:41:13.415Z,7.40
2019-03-12T08:43:40.252Z,7.30
2019-03-12T08:46:06.943Z,7.70
2019-03-12T08:48:33.690Z,8.10
2019-03-12T08:51:00.354Z,8.20
2019-03-12T08:53:27.065Z,8.20
2019-03-12T08:55:53.769Z,8.30
2019-03-12T08:58:20.495Z,8.50
2019-03-12T09:00:47.203Z,8.80
2019-03-12T09:03:13.909Z,8.90
2019-03-12T09:05:40.596Z,9.30
2019-03-12T09:08:07.552Z,9.90
2019-03-12T09:10:34.235Z,10.00
2019-03-12T09:13:00.962Z,9.70
2019-03-12T09:15:27.737Z,9.80
2019-03-12T09:17:54.447Z,9.20
2019-03-12T09:20:21.186Z,9.30
2019-03-12T09:22:47.933Z,9.40
2019-03-12T09:25:14.636Z,9.40
2019-03-12T09:27:54.967Z,9.50
2019-03-12T09:30:21.663Z,9.60
2019-03-12T09:32:48.455Z,9.30
2019-03-12T09:35:15.206Z,8.90
2019-03-12T09:37:41.930Z,9.00
2019-03-12T09:40:09.094Z,9.10
2019-03-12T09:42:35.763Z,9.60
2019-03-12T09:45:03.322Z,10.00
2019-03-12T09:47:30.047Z,10.30
2019-03-12T09:49:56.694Z,10.10
2019-03-12T09:52:23.405Z,9.90
2019-03-12T09:54:50.210Z,10.30
2019-03-12T09:57:16.874Z,10.60
2019-03-12T09:59:43.615Z,10.70
2019-03-12T10:02:10.257Z,11.00
2019-03-12T10:04:37.011Z,11.00
2019-03-12T10:07:23.264Z,11.10
2019-03-12T10:09:49.956Z,11.10
2019-03-12T10:12:16.717Z,11.30
2019-03-12T10:14:43.423Z,11.50
2019-03-12T10:17:10.355Z,11.70
2019-03-12T10:19:37.072Z,11.50
2019-03-12T10:22:03.768Z,11.50
2019-03-12T10:24:30.450Z,11.90
2019-03-12T10:26:57.208Z,11.90
2019-03-12T10:29:25.003Z,11.80
2019-03-12T10:31:51.839Z,11.90
2019-03-12T10:34:28.955Z,11.60
2019-03-12T10:36:51.569Z,11.30
2019-03-12T10:40:15.945Z,11.20
2019-03-12T10:42:48.453Z,11.30
2019-03-12T10:45:15.224Z,11.60
2019-03-12T10:47:41.938Z,11.80
2019-03-12T10:50:09.129Z,11.70
2019-03-12T10:52:35.792Z,11.90
2019-03-12T10:55:12.136Z,12.00
2019-03-12T10:57:31.449Z,12.10
2019-03-12T10:59:58.122Z,12.30
2019-03-12T11:02:24.839Z,12.00
2019-03-12T11:04:51.665Z,11.90
2019-03-12T11:07:18.360Z,11.90
2019-03-12T11:09:45.091Z,11.80
2019-03-12T11:12:11.826Z,11.60
2019-03-12T11:14:38.589Z,11.70
2019-03-12T11:17:05.333Z,11.60
2019-03-12T11:19:32.067Z,11.70
2019-03-12T11:21:58.793Z,11.70
2019-03-12T11:24:25.514Z,11.60
2019-03-12T11:26:52.260Z,12.00
2019-03-12T11:29:18.912Z,11.90
2019-03-12T11:31:45.637Z,11.80
2019-03-12T11:34:12.374Z,11.70
2019-03-12T11:36:39.223Z,11.90
2019-03-12T11:39:06.018Z,12.00
2019-03-12T11:41:32.750Z,12.30
2019-03-12T11:43:59.581Z,12.50
2019-03-12T11:46:26.369Z,12.60
2019-03-12T11:48:53.132Z,12.50
2019-03-12T11:51:20.213Z,12.40
2019-03-12T11:53:47.314Z,12.30
2019-03-12T11:56:14.489Z,12.50
2019-03-12T11:58:41.205Z,12.60
2019-03-12T12:01:07.885Z,12.60
2019-03-12T12:03:34.628Z,12.60
2019-03-12T12:06:01.441Z,13.00
2019-03-12T12:08:28.298Z,12.90
2019-03-12T12:10:55.153Z,12.70
2019-03-12T12:13:21.896Z,12.90
2019-03-12T12:15:48.668Z,12.60
2019-03-12T12:18:15.464Z,12.70
2019-03-12T12:20:42.199Z,12.60
2019-03-12T12:23:08.866Z,12.70
2019-03-12T12:25:35.607Z,12.30
2019-03-12T12:28:02.281Z,12.30
2019-03-12T12:30:29.029Z,12.10
2019-03-12T12:32:55.715Z,12.40
2019-03-12T12:35:22.711Z,12.30
2019-03-12T12:37:49.426Z,12.40
2019-03-12T12:40:16.248Z,12.20
2019-03-12T12:42:42.984Z,12.30
2019-03-12T12:45:12.700Z,12.60
2019-03-12T12:47:39.434Z,12.60
2019-03-12T12:50:06.329Z,12.40
2019-03-12T12:52:33.085Z,12.70
2019-03-12T12:54:59.802Z,12.70
2019-03-12T12:57:26.529Z,12.60
2019-03-12T12:59:53.271Z,12.60
2019-03-12T13:02:19.805Z,12.70
2019-03-12T13:04:46.492Z,12.50
2019-03-12T13:07:13.179Z,12.50
2019-03-12T13:09:39.892Z,12.50
2019-03-12T13:12:06.573Z,12.50
2019-03-12T13:14:41.506Z,12.50
2019-03-12T13:17:01.842Z,12.90
2019-03-12T13:19:28.471Z,12.80
2019-03-12T13:21:55.288Z,12.90
2019-03-12T13:24:21.983Z,12.70
2019-03-12T13:26:48.859Z,12.80
2019-03-12T13:29:15.522Z,13.20
2019-03-12T13:31:42.145Z,13.20
2019-03-12T13:34:08.850Z,13.60
2019-03-12T13:36:35.422Z,13.60
2019-03-12T13:39:02.262Z,13.40
2019-03-12T13:41:29.078Z,13.40
2019-03-12T13:43:55.815Z,13.20
2019-03-12T13:46:22.574Z,13.30
2019-03-12T13:48:49.257Z,13.30
2019-03-12T13:51:16.022Z,13.20
2019-03-12T13:53:42.704Z,13.40
2019-03-12T13:56:09.407Z,13.40
2019-03-12T13:58:36.110Z,13.50
2019-03-12T14:01:02.741Z,13.40
2019-03-12T14:03:29.556Z,13.40
2019-03-12T14:05:56.365Z,13.80
2019-03-12T14:08:23.177Z,13.90
2019-03-12T14:10:49.913Z,14.20
2019-03-12T14:13:16.590Z,13.90
2019-03-12T14:15:43.265Z,14.00
2019-03-12T14:18:09.963Z,14.00
2019-03-12T14:20:44.151Z,14.10
2019-03-12T14:23:13.216Z,14.10
2019-03-12T14:25:39.910Z,14.00
2019-03-12T14:28:06.741Z,13.80
2019-03-12T14:30:33.594Z,13.80
2019-03-12T14:33:00.271Z,13.70
2019-03-12T14:35:26.975Z,14.00
2019-03-12T14:37:53.859Z,14.10
2019-03-12T14:40:20.664Z,14.00
2019-03-12T14:42:47.334Z,13.90
2019-03-12T14:45:22.031Z,13.70
2019-03-12T14:47:48.763Z,13.70
2019-03-12T14:50:16.066Z,13.60
2019-03-12T14:52:46.390Z,13.50
2019-03-12T14:55:13.097Z,13.70
2019-03-12T14:57:40.018Z,13.80
2019-03-12T15:00:16.842Z,14.00
2019-03-12T15:02:43.469Z,13.80
2019-03-12T15:05:10.207Z,13.90
2019-03-12T15:07:36.869Z,14.20
2019-03-12T15:10:03.781Z,14.00
2019-03-12T15:12:30.535Z,13.80
2019-03-12T15:14:57.302Z,13.90
2019-03-12T15:17:23.994Z,14.10
2019-03-12T15:19:50.632Z,14.00
2019-03-12T15:22:17.322Z,14.00
2019-03-12T15:24:44.034Z,13.90
2019-03-12T15:27:10.763Z,13.90
2019-03-12T15:29:37.470Z,13.90
2019-03-12T15:32:04.801Z,14.00
2019-03-12T15:34:31.637Z,13.90
2019-03-12T15:36:58.362Z,13.90
2019-03-12T15:39:25.125Z,13.70
2019-03-12T15:41:51.774Z,13.80
2019-03-12T15:44:19.301Z,13.40
2019-03-12T15:46:46.286Z,13.00
2019-03-12T15:49:13.012Z,13.40
2019-03-12T15:51:39.910Z,13.40
2019-03-12T15:54:06.604Z,13.30
2019-03-12T15:56:33.330Z,13.40
2019-03-12T15:59:00.162Z,13.10
2019-03-12T16:01:26.825Z,13.30
2019-03-12T16:03:53.511Z,13.10
2019-03-12T16:06:20.215Z,13.00
2019-03-12T16:08:46.948Z,13.10
2019-03-12T16:11:13.557Z,13.30
2019-03-12T16:13:40.226Z,13.00
2019-03-12T16:16:06.973Z,13.20
2019-03-12T16:18:33.690Z,13.30
2019-03-12T16:21:00.459Z,13.20
2019-03-12T16:23:27.106Z,13.40
2019-03-12T16:25:53.837Z,13.30
2019-03-12T16:28:20.507Z,13.10
2019-03-12T16:30:47.191Z,13.20
2019-03-12T16:33:13.892Z,13.30
2019-03-12T16:35:40.639Z,13.20
2019-03-12T16:38:07.406Z,13.10
2019-03-12T16:40:34.110Z,13.20
2019-03-12T16:43:00.827Z,13.10
2019-03-12T16:45:27.547Z,13.00
2019-03-12T16:47:54.122Z,12.90
2019-03-12T16:50:20.837Z,13.00
2019-03-12T16:52:47.543Z,12.80
2019-03-12T16:55:14.235Z,13.10
2019-03-12T16:57:40.900Z,13.10
2019-03-12T17:00:09.053Z,12.70
2019-03-12T17:02:35.721Z,12.40
2019-03-12T17:05:03.942Z,12.50
2019-03-12T17:07:30.806Z,12.80
2019-03-12T17:09:57.395Z,12.90
2019-03-12T17:12:23.978Z,13.00
2019-03-12T17:14:50.645Z,12.80
2019-03-12T17:17:18.202Z,12.80
2019-03-12T17:19:44.904Z,12.60
2019-03-12T17:22:11.625Z,12.50
2019-03-12T17:24:38.320Z,12.60
2019-03-12T17:27:05.014Z,12.50
2019-03-12T17:29:31.697Z,12.60
2019-03-12T17:31:58.957Z,12.50
2019-03-12T17:34:35.190Z,12.50
2019-03-12T17:36:54.349Z,12.30
2019-03-12T17:39:21.034Z,12.40
2019-03-12T17:41:47.741Z,12.30
2019-03-12T17:44:14.442Z,12.00
2019-03-12T17:46:41.183Z,11.80
2019-03-12T17:49:07.875Z,11.70
2019-03-12T17:51:34.603Z,11.70
2019-03-12T17:54:04.078Z,11.50
2019-03-12T17:56:32.599Z,11.40
2019-03-12T17:59:01.211Z,11.30
2019-03-12T18:01:30.095Z,11.60
2019-03-12T18:03:56.610Z,12.20
2019-03-12T18:06:23.362Z,12.10
2019-03-12T18:08:50.041Z,12.00
2019-03-12T18:11:16.796Z,11.90
2019-03-12T18:13:43.484Z,11.90
2019-03-12T18:16:10.273Z,11.70
2019-03-12T18:18:37.135Z,11.60
2019-03-12T18:21:03.785Z,11.50
2019-03-12T18:23:30.575Z,11.40
2019-03-12T18:25:57.985Z,11.40
2019-03-12T18:28:24.842Z,11.40
2019-03-12T18:30:51.580Z,11.30
2019-03-12T18:33:18.172Z,11.30
2019-03-12T18:35:44.947Z,11.30
2019-03-12T18:38:11.799Z,11.20
2019-03-12T18:40:38.490Z,11.50
2019-03-12T18:43:05.191Z,11.40
2019-03-12T18:45:31.946Z,11.30
2019-03-12T18:47:58.704Z,11.40
2019-03-12T18:50:25.955Z,11.30
2019-03-12T18:52:52.779Z,11.30
2019-03-12T18:55:43.873Z,11.20
2019-03-12T18:58:10.743Z,11.20
2019-03-12T19:00:37.534Z,11.40
2019-03-12T19:03:04.498Z,11.40
2019-03-12T19:05:31.203Z,11.40
2019-03-12T19:07:57.941Z,11.50
2019-03-12T19:10:24.674Z,11.50
2019-03-12T19:12:51.390Z,11.60
2019-03-12T19:15:18.112Z,11.60
2019-03-12T19:17:44.796Z,11.50
2019-03-12T19:20:11.494Z,11.70
2019-03-12T19:22:57.721Z,11.70
2019-03-12T19:25:24.564Z,11.70
2019-03-12T19:27:59.831Z,12.00
2019-03-12T19:30:19.936Z,12.00
2019-03-12T19:32:48.461Z,11.90
2019-03-12T19:35:15.386Z,11.70
2019-03-12T19:37:42.233Z,12.00
2019-03-12T19:40:12.444Z,12.30
2019-03-12T19:42:39.251Z,12.50
2019-03-12T19:45:06.743Z,12.50
2019-03-12T19:47:33.409Z,12.60
2019-03-12T19:50:00.391Z,12.50
2019-03-12T19:52:27.260Z,12.70
2019-03-12T19:54:54.181Z,12.30
2019-03-12T19:57:20.927Z,12.10
2019-03-12T19:59:47.626Z,12.20
2019-03-12T20:02:16.602Z,12.30
2019-03-12T20:04:47.466Z,12.60
2019-03-12T20:07:12.206Z,12.40
2019-03-12T20:09:55.213Z,12.20
2019-03-12T20:12:54.251Z,12.30
2019-03-12T20:15:44.825Z,12.60
2019-03-12T20:18:36.605Z,12.50
2019-03-12T20:21:22.930Z,12.20
2019-03-12T20:24:49.541Z,12.30
2019-03-12T20:27:53.959Z,12.30
2019-03-12T20:31:01.385Z,12.60
2019-03-12T20:34:08.811Z,12.50
2019-03-12T20:37:12.282Z,12.90
2019-03-12T20:40:17.283Z,13.00
2019-03-12T20:43:21.007Z,13.00
2019-03-12T20:46:28.558Z,13.00
2019-03-12T20:49:52.415Z,13.10
2019-03-12T20:52:57.560Z,13.00
2019-03-12T20:55:56.600Z,13.30
2019-03-12T20:59:16.628Z,13.40
2019-03-12T21:02:36.375Z,13.50
2019-03-12T21:05:46.627Z,13.50
2019-03-12T21:09:19.593Z,13.30
2019-03-12T21:12:40.069Z,13.40
2019-03-12T21:15:57.743Z,13.40
2019-03-12T21:19:01.302Z,13.50
2019-03-12T21:22:05.427Z,13.70
2019-03-12T21:25:10.531Z,13.50
2019-03-12T21:28:19.226Z,13.80
2019-03-12T21:30:45.954Z,14.00
2019-03-12T21:33:15.583Z,14.00
2019-03-12T21:35:41.235Z,13.90
2019-03-12T21:38:07.985Z,14.00
2019-03-12T21:40:34.952Z,14.10
2019-03-12T21:43:01.657Z,14.00
2019-03-12T21:45:28.457Z,14.00
2019-03-12T21:47:55.141Z,14.10
2019-03-12T21:50:24.166Z,14.20
2019-03-12T21:52:50.408Z,14.10
2019-03-12T21:55:17.227Z,14.30
2019-03-12T21:57:43.997Z,14.10
2019-03-12T22:00:12.773Z,14.00
2019-03-12T22:02:39.642Z,14.30
2019-03-12T22:05:06.564Z,13.90
2019-03-12T22:07:33.390Z,14.10
2019-03-12T22:10:00.072Z,13.80
2019-03-12T22:12:26.877Z,13.30
2019-03-12T22:14:53.625Z,12.90
2019-03-12T22:17:20.321Z,12.50
2019-03-12T22:19:47.077Z,12.30
2019-03-12T22:22:13.822Z,12.20
2019-03-12T22:24:40.520Z,12.10
2019-03-12T22:27:07.213Z,11.90
2019-03-12T22:29:33.954Z,11.90
2019-03-12T22:32:00.624Z,11.90
2019-03-12T22:34:30.032Z,12.00
2019-03-12T22:36:55.822Z,11.90
2019-03-12T22:39:22.532Z,11.90
2019-03-12T22:41:49.198Z,12.10
2019-03-12T22:44:15.966Z,12.10
2019-03-12T22:46:42.547Z,12.20
2019-03-12T22:49:09.236Z,12.20
2019-03-12T22:51:35.968Z,12.30
2019-03-12T22:54:02.682Z,12.50
2019-03-12T22:56:29.398Z,12.30
2019-03-12T22:58:56.094Z,12.20
2019-03-12T23:01:22.809Z,12.20
2019-03-12T23:03:49.504Z,12.40
2019-03-12T23:06:16.229Z,12.40
2019-03-12T23:08:42.889Z,12.10
2019-03-12T23:11:09.737Z,11.90
2019-03-12T23:13:36.483Z,12.00
2019-03-12T23:16:03.146Z,12.10
2019-03-12T23:18:29.866Z,11.90
2019-03-12T23:20:56.434Z,11.70
2019-03-12T23:23:23.164Z,11.70
2019-03-12T23:25:49.819Z,11.50
2019-03-12T23:28:16.584Z,11.30
2019-03-12T23:30:43.350Z,11.10
2019-03-12T23:33:10.014Z,11.10
2019-03-12T23:35:36.683Z,11.00
2019-03-12T23:38:03.431Z,10.90
2019-03-12T23:40:30.257Z,10.80
2019-03-12T23:42:56.944Z,10.80
2019-03-12T23:45:23.692Z,10.80
2019-03-12T23:47:50.806Z,10.60
2019-03-12T23:50:17.713Z,10.40
2019-03-12T23:52:44.506Z,10.40
2019-03-12T23:55:11.633Z,10.40
2019-03-12T23:57:38.379Z,10.10
